Time;durP1;ratioP1;P1;durP2;ratioP2;P2;SDS_P1;SDS_P2;PMS_P1;PMS_P2;Temp;Humidity;BMP_temperature;BMP_pressure;BME280_temperature;BME280_humidity;BME280_pressure;Samples;Min_cycle;Max_cycle;Signal;HPM_P1;HPM_P2
2022/10/30 00:00:12;;;;;;;12.70;4.35;;;;;;;;;;4973749;28;20149;-60
2022/10/30 00:02:38;;;;;;;10.02;4.25;;;;;;;;;;4990788;28;20621;-61
2022/10/30 00:05:04;;;;;;;11.50;4.38;;;;;;;;;;4972412;28;20039;-61
2022/10/30 00:07:29;;;;;;;13.68;4.70;;;;;;;;;;4985827;28;20092;-60
2022/10/30 00:09:54;;;;;;;13.18;4.55;;;;;;;;;;4987552;28;20113;-61
2022/10/30 00:12:20;;;;;;;10.18;4.13;;;;;;;;;;5002625;28;20084;-61
2022/10/30 00:14:45;;;;;;;12.43;4.38;;;;;;;;;;5005274;28;20034;-60
2022/10/30 00:17:10;;;;;;;12.50;4.75;;;;;;;;;;5010554;28;20113;-60
2022/10/30 00:19:36;;;;;;;10.77;4.30;;;;;;;;;;4983605;28;20835;-60
2022/10/30 00:22:02;;;;;;;10.85;4.50;;;;;;;;;;4974054;28;20039;-61
2022/10/30 00:24:28;;;;;;;11.25;4.55;;;;;;;;;;5000005;28;20077;-60
2022/10/30 00:26:54;;;;;;;11.98;4.60;;;;;;;;;;4992369;28;20434;-61
2022/10/30 00:29:22;;;;;;;12.65;4.32;;;;;;;;;;5001198;28;20079;-62
2022/10/30 00:31:51;;;;;;;12.98;4.43;;;;;;;;;;4991138;28;20066;-61
2022/10/30 00:34:16;;;;;;;10.73;4.22;;;;;;;;;;4993867;28;20128;-60
2022/10/30 00:36:41;;;;;;;9.70;4.35;;;;;;;;;;4978159;28;20659;-60
2022/10/30 00:39:07;;;;;;;9.23;4.68;;;;;;;;;;4981849;28;20447;-60
2022/10/30 00:41:32;;;;;;;9.75;4.47;;;;;;;;;;4976985;28;20034;-61
2022/10/30 00:43:57;;;;;;;13.75;4.53;;;;;;;;;;4989278;28;20041;-62
2022/10/30 00:46:23;;;;;;;15.82;4.88;;;;;;;;;;4977595;28;20046;-60
2022/10/30 00:48:57;;;;;;;11.50;4.50;;;;;;;;;;4973455;28;20431;-60
2022/10/30 00:51:22;;;;;;;11.00;4.72;;;;;;;;;;4978804;28;20030;-61
2022/10/30 00:53:49;;;;;;;9.32;4.93;;;;;;;;;;4991037;28;20034;-62
2022/10/30 00:56:18;;;;;;;11.95;4.38;;;;;;;;;;4995013;28;20057;-61
2022/10/30 00:58:49;;;;;;;11.93;5.28;;;;;;;;;;4992204;28;20125;-61
2022/10/30 01:01:20;;;;;;;10.55;4.50;;;;;;;;;;4993486;28;20085;-61
2022/10/30 01:03:49;;;;;;;15.57;4.90;;;;;;;;;;5002935;28;20034;-60
2022/10/30 01:06:15;;;;;;;14.02;4.57;;;;;;;;;;4995120;28;20517;-61
2022/10/30 01:08:41;;;;;;;12.40;4.60;;;;;;;;;;4989560;28;20117;-60
2022/10/30 01:11:08;;;;;;;9.00;4.07;;;;;;;;;;4978408;28;20042;-61
2022/10/30 01:13:35;;;;;;;13.63;4.35;;;;;;;;;;4988374;28;20031;-60
2022/10/30 01:16:09;;;;;;;11.77;4.50;;;;;;;;;;4984022;28;20038;-60
2022/10/30 01:18:38;;;;;;;10.68;4.32;;;;;;;;;;4997637;28;20034;-60
2022/10/30 01:21:33;;;;;;;10.82;4.55;;;;;;;;;;4997031;28;20126;-60
2022/10/30 01:24:30;;;;;;;10.65;4.32;;;;;;;;;;4956768;28;20396;-60
2022/10/30 01:27:16;;;;;;;9.85;4.28;;;;;;;;;;4975916;28;20038;-60
2022/10/30 01:30:02;;;;;;;12.27;5.07;;;;;;;;;;5004875;28;20213;-61
2022/10/30 01:33:13;;;;;;;11.52;4.50;;;;;;;;;;4999561;28;20025;-61
2022/10/30 01:35:55;;;;;;;12.82;5.05;;;;;;;;;;5000271;28;20030;-60
2022/10/30 01:38:46;;;;;;;11.18;4.85;;;;;;;;;;4985997;28;20069;-61
2022/10/30 01:41:11;;;;;;;13.00;4.40;;;;;;;;;;4984263;28;20483;-61
2022/10/30 01:43:38;;;;;;;12.90;4.97;;;;;;;;;;4990348;28;20085;-61
2022/10/30 01:46:18;;;;;;;10.48;4.63;;;;;;;;;;4987707;28;20041;-61
2022/10/30 01:48:57;;;;;;;11.65;4.57;;;;;;;;;;4989514;28;20042;-60
2022/10/30 01:52:08;;;;;;;10.90;4.72;;;;;;;;;;4992712;28;20026;-62
2022/10/30 01:55:11;;;;;;;11.70;4.70;;;;;;;;;;4999215;28;20093;-61
2022/10/30 01:58:04;;;;;;;11.40;5.47;;;;;;;;;;4985416;28;20113;-61
2022/10/30 02:00:30;;;;;;;14.05;5.15;;;;;;;;;;4991943;28;20446;-60
2022/10/30 02:02:56;;;;;;;12.18;4.70;;;;;;;;;;4993076;28;20118;-62
2022/10/30 02:05:35;;;;;;;10.43;4.80;;;;;;;;;;4980964;28;20105;-61
2022/10/30 02:08:01;;;;;;;10.52;4.70;;;;;;;;;;4974607;28;20117;-61
2022/10/30 02:10:27;;;;;;;10.38;4.53;;;;;;;;;;4984665;28;20109;-62
2022/10/30 02:12:53;;;;;;;11.88;4.97;;;;;;;;;;4984383;28;20492;-60
2022/10/30 02:15:18;;;;;;;9.73;4.68;;;;;;;;;;4987792;28;20030;-60
2022/10/30 02:17:44;;;;;;;11.57;4.50;;;;;;;;;;4982741;28;20790;-60
2022/10/30 02:20:19;;;;;;;15.25;4.82;;;;;;;;;;5001233;28;20100;-60
2022/10/30 02:22:46;;;;;;;14.07;4.72;;;;;;;;;;4983411;28;20037;-60
2022/10/30 02:25:12;;;;;;;10.35;4.88;;;;;;;;;;4994076;28;20093;-60
2022/10/30 02:27:37;;;;;;;13.10;4.78;;;;;;;;;;4985018;28;20475;-61
2022/10/30 02:30:03;;;;;;;12.10;4.43;;;;;;;;;;4999206;28;20034;-62
2022/10/30 02:32:28;;;;;;;12.32;4.80;;;;;;;;;;4991727;28;20030;-62
2022/10/30 02:34:54;;;;;;;11.23;4.95;;;;;;;;;;4989003;28;20027;-61
2022/10/30 02:37:19;;;;;;;13.77;4.70;;;;;;;;;;4979283;28;20030;-61
2022/10/30 02:39:44;;;;;;;13.73;5.00;;;;;;;;;;5005204;28;20030;-61
2022/10/30 02:42:10;;;;;;;12.02;5.30;;;;;;;;;;5009597;28;20030;-61
2022/10/30 02:44:35;;;;;;;12.40;5.28;;;;;;;;;;4973249;28;20472;-60
2022/10/30 02:47:01;;;;;;;12.15;5.13;;;;;;;;;;4972667;28;20460;-60
2022/10/30 02:49:26;;;;;;;13.10;5.05;;;;;;;;;;4980168;28;20113;-61
2022/10/30 02:51:52;;;;;;;9.98;5.18;;;;;;;;;;5011423;28;20045;-60
2022/10/30 02:54:17;;;;;;;12.55;5.32;;;;;;;;;;5009621;28;20029;-60
2022/10/30 02:56:42;;;;;;;12.48;5.45;;;;;;;;;;4994097;28;20061;-60
2022/10/30 02:59:08;;;;;;;12.95;5.22;;;;;;;;;;4981557;28;20463;-60
2022/10/30 03:01:33;;;;;;;13.45;5.28;;;;;;;;;;4981955;28;20031;-60
2022/10/30 03:03:59;;;;;;;9.55;5.13;;;;;;;;;;4977564;28;20034;-60
2022/10/30 03:06:24;;;;;;;12.60;5.45;;;;;;;;;;4980634;28;20058;-60
2022/10/30 03:08:50;;;;;;;13.25;5.38;;;;;;;;;;4972737;28;20174;-61
2022/10/30 03:11:17;;;;;;;19.10;5.15;;;;;;;;;;4977570;28;20140;-62
2022/10/30 03:13:44;;;;;;;11.20;4.90;;;;;;;;;;5006689;28;20039;-61
2022/10/30 03:16:12;;;;;;;12.20;5.45;;;;;;;;;;4987379;28;20039;-61
2022/10/30 03:18:38;;;;;;;15.25;5.95;;;;;;;;;;5009569;28;20034;-62
2022/10/30 03:21:06;;;;;;;9.77;5.25;;;;;;;;;;4984453;28;20368;-60
2022/10/30 03:23:32;;;;;;;12.68;5.13;;;;;;;;;;4990938;28;20101;-61
2022/10/30 03:25:58;;;;;;;13.10;5.53;;;;;;;;;;4983821;28;20038;-61
2022/10/30 03:28:26;;;;;;;9.32;5.35;;;;;;;;;;4992501;28;20034;-61
2022/10/30 03:31:04;;;;;;;13.35;5.68;;;;;;;;;;4988774;28;20045;-60
2022/10/30 03:33:30;;;;;;;13.32;5.60;;;;;;;;;;4992363;28;20035;-61
2022/10/30 03:35:55;;;;;;;8.88;5.15;;;;;;;;;;4992141;28;20471;-60
2022/10/30 03:38:21;;;;;;;13.38;5.25;;;;;;;;;;4997009;28;20087;-60
2022/10/30 03:40:46;;;;;;;11.20;5.38;;;;;;;;;;5000968;28;20475;-60
2022/10/30 03:43:12;;;;;;;9.98;4.88;;;;;;;;;;4992573;28;20030;-60
2022/10/30 03:45:37;;;;;;;9.75;5.10;;;;;;;;;;4993655;28;20462;-61
2022/10/30 03:48:04;;;;;;;8.75;4.82;;;;;;;;;;5007189;28;20259;-60
2022/10/30 03:50:30;;;;;;;11.98;5.28;;;;;;;;;;4998875;28;20034;-60
2022/10/30 03:52:56;;;;;;;16.52;5.70;;;;;;;;;;4993922;28;20037;-60
2022/10/30 03:55:22;;;;;;;10.52;5.07;;;;;;;;;;4983813;28;20082;-62
2022/10/30 03:57:48;;;;;;;13.13;4.78;;;;;;;;;;4979457;28;20092;-62
2022/10/30 04:00:14;;;;;;;8.38;4.35;;;;;;;;;;4986355;28;20073;-61
2022/10/30 04:02:47;;;;;;;12.35;4.78;;;;;;;;;;4972247;28;20058;-64
2022/10/30 04:05:14;;;;;;;13.38;4.95;;;;;;;;;;4974601;28;20464;-60
2022/10/30 04:07:40;;;;;;;14.68;4.97;;;;;;;;;;4971623;28;20086;-61
2022/10/30 04:10:05;;;;;;;8.80;5.22;;;;;;;;;;4999679;28;20030;-61
2022/10/30 04:12:31;;;;;;;13.32;5.43;;;;;;;;;;4971164;28;20425;-61
2022/10/30 04:14:56;;;;;;;13.98;5.28;;;;;;;;;;4990894;28;20093;-61
2022/10/30 04:17:21;;;;;;;10.18;5.70;;;;;;;;;;5000746;28;20071;-61
2022/10/30 04:19:47;;;;;;;13.55;5.20;;;;;;;;;;4994066;28;20099;-60
2022/10/30 04:22:12;;;;;;;17.02;5.38;;;;;;;;;;4989664;28;20038;-60
2022/10/30 04:24:38;;;;;;;13.68;5.55;;;;;;;;;;4989447;28;20058;-60
2022/10/30 04:27:04;;;;;;;12.45;5.15;;;;;;;;;;4985258;28;20510;-62
2022/10/30 04:29:29;;;;;;;10.45;5.78;;;;;;;;;;4977671;28;20035;-60
2022/10/30 04:31:55;;;;;;;12.35;5.32;;;;;;;;;;5003070;28;20038;-61
2022/10/30 04:34:20;;;;;;;11.90;5.13;;;;;;;;;;4993231;28;20038;-60
2022/10/30 04:36:45;;;;;;;12.15;5.88;;;;;;;;;;4994886;28;20053;-60
2022/10/30 04:39:12;;;;;;;11.85;5.55;;;;;;;;;;5002446;28;20121;-60
2022/10/30 04:41:38;;;;;;;12.20;5.75;;;;;;;;;;4995296;28;20062;-60
2022/10/30 04:44:03;;;;;;;11.88;5.65;;;;;;;;;;4996811;28;20035;-60
2022/10/30 04:46:28;;;;;;;11.43;5.72;;;;;;;;;;4979364;28;20035;-61
2022/10/30 04:48:54;;;;;;;17.35;5.80;;;;;;;;;;4980110;28;20054;-61
2022/10/30 04:51:19;;;;;;;12.18;5.60;;;;;;;;;;4979864;28;20535;-61
2022/10/30 04:53:45;;;;;;;9.30;5.20;;;;;;;;;;5003062;28;20478;-61
2022/10/30 04:56:10;;;;;;;12.75;5.55;;;;;;;;;;4997274;28;20524;-61
2022/10/30 04:58:36;;;;;;;16.60;5.93;;;;;;;;;;5006493;28;20037;-62
2022/10/30 05:01:02;;;;;;;13.35;6.00;;;;;;;;;;5013660;28;20470;-61
2022/10/30 05:03:28;;;;;;;10.85;5.63;;;;;;;;;;4997178;28;20034;-61
2022/10/30 05:05:58;;;;;;;11.50;5.93;;;;;;;;;;5003228;28;20088;-60
2022/10/30 05:08:24;;;;;;;11.35;5.88;;;;;;;;;;5009149;28;20461;-61
2022/10/30 05:10:49;;;;;;;17.42;5.85;;;;;;;;;;5007831;28;20483;-62
2022/10/30 05:13:14;;;;;;;15.85;5.55;;;;;;;;;;5011706;28;20107;-61
2022/10/30 05:15:40;;;;;;;13.43;5.82;;;;;;;;;;5008019;28;20037;-62
2022/10/30 05:18:05;;;;;;;22.83;6.05;;;;;;;;;;5010198;28;20046;-61
2022/10/30 05:20:30;;;;;;;14.75;5.53;;;;;;;;;;5013784;28;20541;-62
2022/10/30 05:22:58;;;;;;;15.85;5.70;;;;;;;;;;5014084;28;20042;-62
2022/10/30 05:25:24;;;;;;;13.43;5.82;;;;;;;;;;5010692;28;20084;-60
2022/10/30 05:27:50;;;;;;;14.02;5.70;;;;;;;;;;5008279;28;20051;-61
2022/10/30 05:30:15;;;;;;;11.25;5.60;;;;;;;;;;5010293;28;20038;-60
2022/10/30 05:32:41;;;;;;;13.88;6.38;;;;;;;;;;5003978;28;20116;-61
2022/10/30 05:35:07;;;;;;;14.10;6.30;;;;;;;;;;5011408;28;20084;-61
2022/10/30 05:37:32;;;;;;;12.25;6.20;;;;;;;;;;5004552;28;20114;-61
2022/10/30 05:39:58;;;;;;;12.75;6.03;;;;;;;;;;4990046;28;20712;-62
2022/10/30 05:42:23;;;;;;;12.75;5.78;;;;;;;;;;5000795;28;20081;-61
2022/10/30 05:44:49;;;;;;;14.68;6.18;;;;;;;;;;4988087;28;20022;-61
2022/10/30 05:47:14;;;;;;;13.70;5.70;;;;;;;;;;4994315;28;20482;-60
2022/10/30 05:49:39;;;;;;;12.10;5.97;;;;;;;;;;5013515;28;20030;-61
2022/10/30 05:52:05;;;;;;;14.05;6.00;;;;;;;;;;5011080;28;20034;-60
2022/10/30 05:54:32;;;;;;;12.02;5.70;;;;;;;;;;5012523;28;20113;-60
2022/10/30 05:56:57;;;;;;;12.73;6.60;;;;;;;;;;5012396;28;20219;-61
2022/10/30 05:59:23;;;;;;;13.02;5.75;;;;;;;;;;5014145;28;20062;-61
2022/10/30 06:01:48;;;;;;;18.10;6.68;;;;;;;;;;5000159;28;20470;-62
2022/10/30 06:04:13;;;;;;;14.70;6.68;;;;;;;;;;5002923;28;20042;-61
2022/10/30 06:06:39;;;;;;;12.43;6.13;;;;;;;;;;5013437;28;20058;-62
2022/10/30 06:09:04;;;;;;;16.70;6.78;;;;;;;;;;5007334;28;20060;-62
2022/10/30 06:11:30;;;;;;;12.50;6.13;;;;;;;;;;5013660;28;20042;-61
2022/10/30 06:13:55;;;;;;;13.55;6.30;;;;;;;;;;5011799;28;20108;-61
2022/10/30 06:16:20;;;;;;;15.95;6.68;;;;;;;;;;5012122;28;20116;-62
2022/10/30 06:18:46;;;;;;;18.55;6.28;;;;;;;;;;5005452;28;20383;-63
2022/10/30 06:21:11;;;;;;;12.57;5.72;;;;;;;;;;4995576;28;20037;-63
2022/10/30 06:23:37;;;;;;;11.70;5.78;;;;;;;;;;5013512;28;20463;-63
2022/10/30 06:26:02;;;;;;;11.77;5.90;;;;;;;;;;5010880;28;20293;-63
2022/10/30 06:28:27;;;;;;;12.98;6.85;;;;;;;;;;5012202;28;20042;-63
2022/10/30 06:30:54;;;;;;;15.82;6.45;;;;;;;;;;5009070;28;20046;-63
2022/10/30 06:33:19;;;;;;;12.85;6.00;;;;;;;;;;5010222;28;20073;-63
2022/10/30 06:35:48;;;;;;;9.93;6.05;;;;;;;;;;5004704;28;20057;-65
2022/10/30 06:38:14;;;;;;;15.00;6.20;;;;;;;;;;5011294;28;20030;-63
2022/10/30 06:40:40;;;;;;;12.00;6.07;;;;;;;;;;5013024;28;20057;-64
2022/10/30 06:43:05;;;;;;;12.55;6.20;;;;;;;;;;5012360;28;20065;-64
2022/10/30 06:45:31;;;;;;;12.77;6.60;;;;;;;;;;5008730;28;20034;-64
2022/10/30 06:47:56;;;;;;;11.82;6.10;;;;;;;;;;5008682;28;20037;-63
2022/10/30 06:50:23;;;;;;;15.32;6.30;;;;;;;;;;5010615;28;20042;-62
2022/10/30 06:52:48;;;;;;;14.68;6.80;;;;;;;;;;5000158;28;20052;-63
2022/10/30 06:55:14;;;;;;;12.15;6.70;;;;;;;;;;4997345;28;20108;-65
2022/10/30 06:57:40;;;;;;;17.65;6.78;;;;;;;;;;5010144;28;20033;-65
2022/10/30 07:00:06;;;;;;;14.30;6.70;;;;;;;;;;5002179;28;20026;-64
2022/10/30 07:02:32;;;;;;;18.27;6.65;;;;;;;;;;5010403;28;20041;-64
2022/10/30 07:04:57;;;;;;;16.60;7.00;;;;;;;;;;5010901;28;20399;-65
2022/10/30 07:07:23;;;;;;;13.60;5.88;;;;;;;;;;5003857;28;20029;-64
2022/10/30 07:09:48;;;;;;;14.23;6.60;;;;;;;;;;5011893;28;20061;-65
2022/10/30 07:12:14;;;;;;;14.77;7.30;;;;;;;;;;5009597;28;20069;-63
2022/10/30 07:14:39;;;;;;;15.98;7.50;;;;;;;;;;5012431;28;20033;-64
2022/10/30 07:17:05;;;;;;;14.02;6.65;;;;;;;;;;5010445;28;20086;-64
2022/10/30 07:19:30;;;;;;;18.42;7.40;;;;;;;;;;5009574;28;20042;-64
2022/10/30 07:21:55;;;;;;;17.20;7.75;;;;;;;;;;5010335;28;20457;-63
2022/10/30 07:24:21;;;;;;;17.60;7.25;;;;;;;;;;5003689;28;20039;-65
2022/10/30 07:26:46;;;;;;;15.55;7.25;;;;;;;;;;5010211;28;20033;-66
2022/10/30 07:29:12;;;;;;;14.52;7.47;;;;;;;;;;5009456;28;20034;-66
2022/10/30 07:31:37;;;;;;;17.00;7.05;;;;;;;;;;5026840;28;20458;-62
2022/10/30 07:34:03;;;;;;;17.17;7.38;;;;;;;;;;5002595;28;20042;-64
2022/10/30 07:36:28;;;;;;;12.70;7.15;;;;;;;;;;5007929;28;20046;-63
2022/10/30 07:38:53;;;;;;;15.05;7.03;;;;;;;;;;5001450;28;20035;-64
2022/10/30 07:41:20;;;;;;;15.40;7.00;;;;;;;;;;4999730;28;20503;-63
2022/10/30 07:43:45;;;;;;;13.07;6.85;;;;;;;;;;5004736;28;20525;-66
2022/10/30 07:46:12;;;;;;;12.90;6.55;;;;;;;;;;5012118;28;20025;-63
2022/10/30 07:48:37;;;;;;;17.60;7.20;;;;;;;;;;5010304;28;20418;-63
2022/10/30 07:51:02;;;;;;;15.18;6.68;;;;;;;;;;5008588;28;20140;-63
2022/10/30 07:53:28;;;;;;;11.80;6.78;;;;;;;;;;5009927;28;20396;-63
2022/10/30 07:55:54;;;;;;;11.82;6.00;;;;;;;;;;5011107;28;20053;-63
2022/10/30 07:58:19;;;;;;;12.30;6.32;;;;;;;;;;5009520;28;20026;-63
2022/10/30 08:00:45;;;;;;;16.67;6.15;;;;;;;;;;5003989;28;20034;-64
2022/10/30 08:03:11;;;;;;;11.35;5.90;;;;;;;;;;4999360;28;20115;-63
2022/10/30 08:05:36;;;;;;;12.07;5.93;;;;;;;;;;5010967;28;20033;-63
2022/10/30 08:08:02;;;;;;;13.43;6.00;;;;;;;;;;5010677;28;20045;-63
2022/10/30 08:10:27;;;;;;;11.70;5.82;;;;;;;;;;5003277;28;20049;-63
2022/10/30 08:12:53;;;;;;;15.07;5.78;;;;;;;;;;5009941;28;20454;-64
2022/10/30 08:15:19;;;;;;;14.15;5.95;;;;;;;;;;5011752;28;20418;-64
2022/10/30 08:17:48;;;;;;;13.90;5.20;;;;;;;;;;4990936;28;20407;-64
2022/10/30 08:20:16;;;;;;;14.70;5.55;;;;;;;;;;5005433;28;20390;-63
2022/10/30 08:22:45;;;;;;;12.68;6.10;;;;;;;;;;5014333;28;20065;-63
2022/10/30 08:25:10;;;;;;;11.68;6.00;;;;;;;;;;5010028;28;20121;-64
2022/10/30 08:27:35;;;;;;;12.32;5.65;;;;;;;;;;5014473;28;20163;-64
2022/10/30 08:30:01;;;;;;;14.18;6.13;;;;;;;;;;5013487;28;20104;-64
2022/10/30 08:32:26;;;;;;;12.02;5.80;;;;;;;;;;5014600;28;20038;-63
2022/10/30 08:34:52;;;;;;;12.07;6.20;;;;;;;;;;5004760;28;20124;-63
2022/10/30 08:37:17;;;;;;;14.32;5.75;;;;;;;;;;4996330;28;20390;-62
2022/10/30 08:39:42;;;;;;;13.77;6.03;;;;;;;;;;4997255;28;20030;-62
2022/10/30 08:42:08;;;;;;;13.20;5.88;;;;;;;;;;5008124;28;20280;-62
2022/10/30 08:44:33;;;;;;;11.27;5.85;;;;;;;;;;5004478;28;20113;-63
2022/10/30 08:46:58;;;;;;;16.25;6.20;;;;;;;;;;5009115;28;20038;-64
2022/10/30 08:49:24;;;;;;;12.88;5.80;;;;;;;;;;5012397;28;20403;-63
2022/10/30 08:51:49;;;;;;;10.70;6.00;;;;;;;;;;4999433;28;20095;-66
2022/10/30 08:54:15;;;;;;;15.60;5.50;;;;;;;;;;5003645;28;20084;-64
2022/10/30 08:56:40;;;;;;;13.10;5.43;;;;;;;;;;5008617;28;20065;-64
2022/10/30 08:59:05;;;;;;;13.55;5.50;;;;;;;;;;5011737;28;20379;-66
2022/10/30 09:01:31;;;;;;;14.82;5.63;;;;;;;;;;5007208;28;20038;-63
2022/10/30 09:03:56;;;;;;;13.00;5.50;;;;;;;;;;5009481;28;20057;-65
2022/10/30 09:06:21;;;;;;;18.38;5.65;;;;;;;;;;5006927;28;20438;-63
2022/10/30 09:08:49;;;;;;;13.25;5.65;;;;;;;;;;5009669;28;20034;-64
2022/10/30 09:11:16;;;;;;;17.27;5.65;;;;;;;;;;5013999;28;20104;-64
2022/10/30 09:13:41;;;;;;;10.52;5.60;;;;;;;;;;5013317;28;20033;-63
2022/10/30 09:16:07;;;;;;;14.98;5.32;;;;;;;;;;5013781;28;20421;-64
2022/10/30 09:18:32;;;;;;;11.82;5.20;;;;;;;;;;5009534;28;20156;-63
2022/10/30 09:20:57;;;;;;;14.55;5.13;;;;;;;;;;5012756;28;20069;-64
2022/10/30 09:23:23;;;;;;;12.45;5.30;;;;;;;;;;5014734;28;20104;-64
2022/10/30 09:25:48;;;;;;;16.45;5.70;;;;;;;;;;5013684;28;20434;-64
2022/10/30 09:28:13;;;;;;;11.50;4.97;;;;;;;;;;5014179;28;20117;-62
2022/10/30 09:30:39;;;;;;;12.07;5.07;;;;;;;;;;5010664;28;20046;-65
2022/10/30 09:33:04;;;;;;;10.95;5.25;;;;;;;;;;5013872;28;20422;-63
2022/10/30 09:35:31;;;;;;;15.20;5.13;;;;;;;;;;5012180;28;20494;-65
2022/10/30 09:37:56;;;;;;;17.55;5.30;;;;;;;;;;5013979;28;20036;-64
2022/10/30 09:40:38;;;;;;;13.20;5.38;;;;;;;;;;5011954;28;20042;-64
2022/10/30 09:43:19;;;;;;;18.40;5.25;;;;;;;;;;4986385;28;20041;-66
2022/10/30 09:45:53;;;;;;;15.95;5.68;;;;;;;;;;4993908;28;20085;-65
2022/10/30 09:49:02;;;;;;;11.05;5.18;;;;;;;;;;4995127;28;20030;-64
2022/10/30 09:51:58;;;;;;;12.98;4.82;;;;;;;;;;4995167;28;20034;-65
2022/10/30 09:54:36;;;;;;;13.73;4.95;;;;;;;;;;4994458;28;20098;-65
2022/10/30 09:57:18;;;;;;;11.77;4.45;;;;;;;;;;5000261;28;20113;-64
2022/10/30 10:00:10;;;;;;;12.77;5.00;;;;;;;;;;5014080;28;20041;-63
2022/10/30 10:02:44;;;;;;;12.23;4.57;;;;;;;;;;5013835;28;20044;-63
2022/10/30 10:05:16;;;;;;;15.95;4.75;;;;;;;;;;5013109;28;20048;-63
2022/10/30 10:07:49;;;;;;;12.07;4.47;;;;;;;;;;5013808;28;20501;-63
2022/10/30 10:10:38;;;;;;;10.43;4.30;;;;;;;;;;5010402;28;20486;-65
2022/10/30 10:13:06;;;;;;;13.40;4.65;;;;;;;;;;5011614;28;20061;-64
2022/10/30 10:15:34;;;;;;;17.85;5.00;;;;;;;;;;5010990;28;20534;-63
2022/10/30 10:18:03;;;;;;;14.38;4.90;;;;;;;;;;5012896;28;20034;-65
2022/10/30 10:20:42;;;;;;;14.90;4.85;;;;;;;;;;5013466;28;20037;-63
2022/10/30 10:23:24;;;;;;;11.48;4.60;;;;;;;;;;5012343;28;20355;-64
2022/10/30 10:25:53;;;;;;;12.73;4.40;;;;;;;;;;5012637;28;20037;-64
2022/10/30 10:28:37;;;;;;;14.38;4.70;;;;;;;;;;5012845;28;20037;-64
2022/10/30 10:31:13;;;;;;;10.52;4.20;;;;;;;;;;5011096;28;20459;-64
2022/10/30 10:34:16;;;;;;;13.93;4.25;;;;;;;;;;5013629;28;20030;-64
2022/10/30 10:36:47;;;;;;;12.35;4.30;;;;;;;;;;5013346;28;20037;-64
2022/10/30 10:39:24;;;;;;;17.77;4.68;;;;;;;;;;5011694;28;20040;-64
2022/10/30 10:41:53;;;;;;;15.18;4.18;;;;;;;;;;5012116;28;20056;-64
2022/10/30 10:44:42;;;;;;;11.15;4.32;;;;;;;;;;5008708;28;20049;-64
2022/10/30 10:47:16;;;;;;;14.73;3.92;;;;;;;;;;5012031;28;20517;-64
2022/10/30 10:49:54;;;;;;;10.50;3.75;;;;;;;;;;5013007;28;20030;-64
2022/10/30 10:52:24;;;;;;;10.40;4.25;;;;;;;;;;5011083;28;20313;-64
2022/10/30 10:55:03;;;;;;;12.15;4.38;;;;;;;;;;5013036;28;20471;-64
2022/10/30 10:57:35;;;;;;;13.18;4.18;;;;;;;;;;5012828;28;20030;-64
2022/10/30 11:00:27;;;;;;;11.45;4.25;;;;;;;;;;5010644;28;20042;-64
2022/10/30 11:03:04;;;;;;;13.82;4.22;;;;;;;;;;5011845;28;20038;-64
2022/10/30 11:05:31;;;;;;;16.30;4.13;;;;;;;;;;5013326;28;20038;-64
2022/10/30 11:08:05;;;;;;;7.95;3.75;;;;;;;;;;5012311;28;20108;-66
2022/10/30 11:10:31;;;;;;;10.32;3.83;;;;;;;;;;5012711;28;20131;-63
2022/10/30 11:12:56;;;;;;;13.07;4.05;;;;;;;;;;5012441;28;20455;-64
2022/10/30 11:15:49;;;;;;;13.23;4.00;;;;;;;;;;5006662;28;20045;-64
2022/10/30 11:18:47;;;;;;;13.35;3.72;;;;;;;;;;5011316;28;20037;-64
2022/10/30 11:21:17;;;;;;;13.05;4.10;;;;;;;;;;4988369;28;20049;-64
2022/10/30 11:23:45;;;;;;;13.13;4.00;;;;;;;;;;4992882;28;20086;-64
2022/10/30 11:26:17;;;;;;;11.18;4.30;;;;;;;;;;4992121;28;20031;-64
2022/10/30 11:29:09;;;;;;;12.93;3.90;;;;;;;;;;4994625;28;20053;-64
2022/10/30 11:31:38;;;;;;;14.10;4.30;;;;;;;;;;5006469;28;20445;-64
2022/10/30 11:34:16;;;;;;;12.73;4.32;;;;;;;;;;5011716;28;20037;-64
2022/10/30 11:36:42;;;;;;;12.05;3.80;;;;;;;;;;5012636;28;20053;-64
2022/10/30 11:39:19;;;;;;;14.80;4.80;;;;;;;;;;5011699;28;20033;-64
2022/10/30 11:42:05;;;;;;;12.95;4.05;;;;;;;;;;5012168;28;20208;-64
2022/10/30 11:44:44;;;;;;;13.43;4.30;;;;;;;;;;5006673;28;20105;-64
2022/10/30 11:47:12;;;;;;;14.27;4.03;;;;;;;;;;5011303;28;20030;-64
2022/10/30 11:49:57;;;;;;;15.27;3.90;;;;;;;;;;5011939;28;20080;-64
2022/10/30 11:52:25;;;;;;;12.55;3.70;;;;;;;;;;5011353;28;20037;-64
2022/10/30 11:54:58;;;;;;;10.45;3.78;;;;;;;;;;5012018;28;20141;-64
2022/10/30 11:57:41;;;;;;;12.25;4.40;;;;;;;;;;5011275;28;20033;-64
2022/10/30 12:00:21;;;;;;;19.10;4.47;;;;;;;;;;5008043;28;20026;-64
2022/10/30 12:02:52;;;;;;;11.43;3.70;;;;;;;;;;5011966;28;20124;-64
2022/10/30 12:05:29;;;;;;;14.50;3.55;;;;;;;;;;5005756;28;20037;-64
2022/10/30 12:08:06;;;;;;;11.80;3.60;;;;;;;;;;5012015;28;20084;-64
2022/10/30 12:10:38;;;;;;;16.95;3.80;;;;;;;;;;5006211;28;20037;-64
2022/10/30 12:13:04;;;;;;;9.35;3.80;;;;;;;;;;4994943;28;20443;-64
2022/10/30 12:15:36;;;;;;;13.77;3.60;;;;;;;;;;5011963;28;20030;-64
2022/10/30 12:18:05;;;;;;;16.95;3.80;;;;;;;;;;5005816;28;20081;-66
2022/10/30 12:20:31;;;;;;;14.57;3.75;;;;;;;;;;4972694;28;20041;-63
2022/10/30 12:22:57;;;;;;;13.50;3.90;;;;;;;;;;4972263;28;20065;-66
2022/10/30 12:25:30;;;;;;;10.88;3.72;;;;;;;;;;4971674;28;20018;-65
2022/10/30 12:27:59;;;;;;;11.30;3.80;;;;;;;;;;4972433;28;20318;-64
2022/10/30 12:30:27;;;;;;;11.50;3.92;;;;;;;;;;4971973;28;20473;-65
2022/10/30 12:33:03;;;;;;;12.23;3.90;;;;;;;;;;4993072;28;20117;-65
2022/10/30 12:36:14;;;;;;;13.07;3.67;;;;;;;;;;5011607;28;20069;-64
2022/10/30 12:38:57;;;;;;;10.05;3.88;;;;;;;;;;4989581;28;20041;-64
2022/10/30 12:41:28;;;;;;;10.90;3.85;;;;;;;;;;5010323;28;20113;-64
2022/10/30 12:44:17;;;;;;;12.05;3.67;;;;;;;;;;5008044;28;20025;-65
2022/10/30 12:47:07;;;;;;;13.30;3.88;;;;;;;;;;5006890;28;20026;-63
2022/10/30 12:49:35;;;;;;;13.77;3.67;;;;;;;;;;5011753;28;20087;-64
2022/10/30 12:52:11;;;;;;;15.45;4.10;;;;;;;;;;5011272;28;20390;-65
2022/10/30 12:55:01;;;;;;;14.00;3.83;;;;;;;;;;5011987;28;20030;-64
2022/10/30 12:57:32;;;;;;;10.75;3.80;;;;;;;;;;5010929;28;20113;-63
2022/10/30 13:00:14;;;;;;;12.05;4.18;;;;;;;;;;5010114;28;20554;-64
2022/10/30 13:02:58;;;;;;;12.57;4.18;;;;;;;;;;5015214;28;20536;-64
2022/10/30 13:05:31;;;;;;;13.80;4.15;;;;;;;;;;5014103;28;20022;-64
2022/10/30 13:08:24;;;;;;;11.88;3.80;;;;;;;;;;5015101;28;20080;-64
2022/10/30 13:10:53;;;;;;;13.35;4.00;;;;;;;;;;5010327;28;20034;-64
2022/10/30 13:13:41;;;;;;;10.60;3.78;;;;;;;;;;5014058;28;20079;-64
2022/10/30 13:16:27;;;;;;;11.00;3.80;;;;;;;;;;5014191;28;20054;-65
2022/10/30 13:18:56;;;;;;;12.88;3.58;;;;;;;;;;5014834;28;20449;-64
2022/10/30 13:21:45;;;;;;;11.55;3.83;;;;;;;;;;5013760;28;20113;-65
2022/10/30 13:24:16;;;;;;;15.35;3.75;;;;;;;;;;5014002;28;20046;-65
2022/10/30 13:27:06;;;;;;;13.02;3.72;;;;;;;;;;5012577;28;20030;-64
2022/10/30 13:29:51;;;;;;;10.07;3.40;;;;;;;;;;5008295;28;20030;-65
2022/10/30 13:32:28;;;;;;;12.75;3.83;;;;;;;;;;4995442;28;20153;-64
2022/10/30 13:35:31;;;;;;;12.13;3.88;;;;;;;;;;4993539;28;20038;-63
2022/10/30 13:38:20;;;;;;;12.82;3.65;;;;;;;;;;4994872;28;20101;-63
2022/10/30 13:41:15;;;;;;;12.65;3.67;;;;;;;;;;4993616;28;20030;-63
2022/10/30 13:44:03;;;;;;;9.88;3.83;;;;;;;;;;4986380;28;20076;-63
2022/10/30 13:46:53;;;;;;;13.43;3.70;;;;;;;;;;4992606;28;20030;-63
2022/10/30 13:49:27;;;;;;;11.93;3.70;;;;;;;;;;4993605;28;20467;-64
2022/10/30 13:52:05;;;;;;;12.90;4.07;;;;;;;;;;5007080;28;20065;-63
2022/10/30 13:54:35;;;;;;;11.80;3.88;;;;;;;;;;5000491;28;20108;-63
2022/10/30 13:57:19;;;;;;;14.35;3.85;;;;;;;;;;5010933;28;20034;-63
2022/10/30 14:00:02;;;;;;;18.92;4.03;;;;;;;;;;4997316;28;20038;-63
2022/10/30 14:02:33;;;;;;;13.43;3.97;;;;;;;;;;5003094;28;20085;-63
2022/10/30 14:05:23;;;;;;;12.30;4.15;;;;;;;;;;5005855;28;20034;-63
2022/10/30 14:08:17;;;;;;;13.23;4.40;;;;;;;;;;5011536;28;20109;-63
2022/10/30 14:10:52;;;;;;;13.88;4.10;;;;;;;;;;5011368;28;20034;-63
2022/10/30 14:13:42;;;;;;;9.90;3.78;;;;;;;;;;5011071;28;20095;-64
2022/10/30 14:16:35;;;;;;;12.05;4.22;;;;;;;;;;4996187;28;20443;-64
2022/10/30 14:19:06;;;;;;;14.63;3.83;;;;;;;;;;4974859;28;20041;-63
2022/10/30 14:21:58;;;;;;;13.60;3.92;;;;;;;;;;5003628;28;20034;-63
2022/10/30 14:24:28;;;;;;;10.32;4.05;;;;;;;;;;5010434;28;20041;-63
2022/10/30 14:27:02;;;;;;;14.80;4.53;;;;;;;;;;5006810;28;20096;-63
2022/10/30 14:29:28;;;;;;;16.35;4.38;;;;;;;;;;5011677;28;20105;-63
2022/10/30 14:31:53;;;;;;;13.68;4.32;;;;;;;;;;5005748;28;20126;-63
2022/10/30 14:34:41;;;;;;;15.05;4.28;;;;;;;;;;5004852;28;20041;-63
2022/10/30 14:37:07;;;;;;;9.52;3.70;;;;;;;;;;4993205;28;20061;-64
2022/10/30 14:39:43;;;;;;;15.18;3.92;;;;;;;;;;4993069;28;20096;-63
2022/10/30 14:42:14;;;;;;;11.35;3.85;;;;;;;;;;4999272;28;20034;-64
2022/10/30 14:44:58;;;;;;;11.50;3.90;;;;;;;;;;5004749;28;20041;-65
2022/10/30 14:47:26;;;;;;;11.52;4.25;;;;;;;;;;5003024;28;20034;-63
2022/10/30 14:50:20;;;;;;;12.30;4.38;;;;;;;;;;4998920;28;20037;-63
2022/10/30 14:53:29;;;;;;;11.18;4.70;;;;;;;;;;4992686;28;20046;-63